sensor_id;sensor_type;location;lat;lon;timestamp;P1;durP1;ratioP1;P2;durP2;ratioP2
65230;SDS011;51813;40.666;16.602;2023-08-08T00:01:06;2.72;;;1.27;;
65230;SDS011;51813;40.666;16.602;2023-08-08T00:03:31;2.17;;;1.20;;
65230;SDS011;51813;40.666;16.602;2023-08-08T00:05:57;3.05;;;1.20;;
65230;SDS011;51813;40.666;16.602;2023-08-08T00:08:23;1.95;;;1.10;;
65230;SDS011;51813;40.666;16.602;2023-08-08T00:10:48;3.00;;;1.38;;
65230;SDS011;51813;40.666;16.602;2023-08-08T00:13:14;2.60;;;1.25;;
65230;SDS011;51813;40.666;16.602;2023-08-08T00:15:40;3.10;;;1.30;;
65230;SDS011;51813;40.666;16.602;2023-08-08T00:18:06;3.60;;;1.40;;
65230;SDS011;51813;40.666;16.602;2023-08-08T00:20:32;2.53;;;1.20;;
65230;SDS011;51813;40.666;16.602;2023-08-08T00:22:57;2.65;;;1.30;;
65230;SDS011;51813;40.666;16.602;2023-08-08T00:25:23;2.20;;;1.30;;
65230;SDS011;51813;40.666;16.602;2023-08-08T00:27:49;3.25;;;1.33;;
65230;SDS011;51813;40.666;16.602;2023-08-08T00:30:15;2.95;;;1.20;;
65230;SDS011;51813;40.666;16.602;2023-08-08T00:32:41;2.67;;;1.30;;
65230;SDS011;51813;40.666;16.602;2023-08-08T00:35:07;2.72;;;1.20;;
65230;SDS011;51813;40.666;16.602;2023-08-08T00:37:33;4.30;;;1.45;;
65230;SDS011;51813;40.666;16.602;2023-08-08T00:39:58;2.58;;;1.30;;
65230;SDS011;51813;40.666;16.602;2023-08-08T00:42:24;3.42;;;1.27;;
65230;SDS011;51813;40.666;16.602;2023-08-08T00:44:50;2.50;;;1.27;;
65230;SDS011;51813;40.666;16.602;2023-08-08T00:47:16;2.53;;;1.30;;
65230;SDS011;51813;40.666;16.602;2023-08-08T00:49:41;2.88;;;1.23;;
65230;SDS011;51813;40.666;16.602;2023-08-08T00:52:09;2.63;;;1.30;;
65230;SDS011;51813;40.666;16.602;2023-08-08T00:54:35;2.58;;;1.10;;
65230;SDS011;51813;40.666;16.602;2023-08-08T00:57:01;2.80;;;1.70;;
65230;SDS011;51813;40.666;16.602;2023-08-08T00:59:27;2.45;;;1.38;;
65230;SDS011;51813;40.666;16.602;2023-08-08T01:01:53;3.05;;;1.40;;
65230;SDS011;51813;40.666;16.602;2023-08-08T01:04:18;2.22;;;1.23;;
65230;SDS011;51813;40.666;16.602;2023-08-08T01:12:13;3.28;;;1.30;;
65230;SDS011;51813;40.666;16.602;2023-08-08T01:14:40;4.13;;;2.08;;
65230;SDS011;51813;40.666;16.602;2023-08-08T01:17:08;5.15;;;2.50;;
65230;SDS011;51813;40.666;16.602;2023-08-08T01:19:35;3.13;;;1.75;;
65230;SDS011;51813;40.666;16.602;2023-08-08T01:22:02;3.80;;;1.80;;
65230;SDS011;51813;40.666;16.602;2023-08-08T01:24:31;2.75;;;1.60;;
65230;SDS011;51813;40.666;16.602;2023-08-08T01:26:59;4.68;;;1.60;;
65230;SDS011;51813;40.666;16.602;2023-08-08T01:29:26;3.92;;;1.90;;
65230;SDS011;51813;40.666;16.602;2023-08-08T01:31:52;3.30;;;1.67;;
65230;SDS011;51813;40.666;16.602;2023-08-08T01:34:18;4.57;;;1.80;;
65230;SDS011;51813;40.666;16.602;2023-08-08T01:39:29;5.65;;;1.90;;
65230;SDS011;51813;40.666;16.602;2023-08-08T01:41:56;3.83;;;1.75;;
65230;SDS011;51813;40.666;16.602;2023-08-08T01:44:23;3.08;;;1.60;;
65230;SDS011;51813;40.666;16.602;2023-08-08T01:46:50;2.88;;;1.42;;
65230;SDS011;51813;40.666;16.602;2023-08-08T01:49:19;3.05;;;1.65;;
65230;SDS011;51813;40.666;16.602;2023-08-08T01:51:45;2.97;;;1.50;;
65230;SDS011;51813;40.666;16.602;2023-08-08T01:54:11;3.42;;;1.50;;
65230;SDS011;51813;40.666;16.602;2023-08-08T01:56:37;4.30;;;1.60;;
65230;SDS011;51813;40.666;16.602;2023-08-08T01:59:03;2.55;;;1.50;;
65230;SDS011;51813;40.666;16.602;2023-08-08T02:01:28;3.15;;;1.55;;
65230;SDS011;51813;40.666;16.602;2023-08-08T02:03:54;4.22;;;1.52;;
65230;SDS011;51813;40.666;16.602;2023-08-08T02:06:20;2.70;;;1.50;;
65230;SDS011;51813;40.666;16.602;2023-08-08T02:08:45;3.85;;;1.50;;
65230;SDS011;51813;40.666;16.602;2023-08-08T02:11:11;3.38;;;1.50;;
65230;SDS011;51813;40.666;16.602;2023-08-08T02:13:37;3.78;;;1.60;;
65230;SDS011;51813;40.666;16.602;2023-08-08T02:16:03;2.42;;;1.40;;
65230;SDS011;51813;40.666;16.602;2023-08-08T02:18:28;3.75;;;1.30;;
65230;SDS011;51813;40.666;16.602;2023-08-08T02:20:54;2.38;;;1.17;;
65230;SDS011;51813;40.666;16.602;2023-08-08T02:23:20;3.13;;;1.33;;
65230;SDS011;51813;40.666;16.602;2023-08-08T02:25:46;2.90;;;1.48;;
65230;SDS011;51813;40.666;16.602;2023-08-08T02:28:11;3.95;;;1.30;;
65230;SDS011;51813;40.666;16.602;2023-08-08T02:30:37;3.03;;;1.63;;
65230;SDS011;51813;40.666;16.602;2023-08-08T02:33:03;4.30;;;1.75;;
65230;SDS011;51813;40.666;16.602;2023-08-08T02:35:29;3.17;;;1.40;;
65230;SDS011;51813;40.666;16.602;2023-08-08T02:37:55;2.80;;;1.20;;
65230;SDS011;51813;40.666;16.602;2023-08-08T02:40:21;2.47;;;1.40;;
65230;SDS011;51813;40.666;16.602;2023-08-08T02:42:48;3.00;;;1.30;;
65230;SDS011;51813;40.666;16.602;2023-08-08T02:45:14;3.13;;;1.20;;
65230;SDS011;51813;40.666;16.602;2023-08-08T02:47:40;3.17;;;1.40;;
65230;SDS011;51813;40.666;16.602;2023-08-08T02:50:06;3.00;;;1.40;;
65230;SDS011;51813;40.666;16.602;2023-08-08T02:52:32;2.33;;;1.23;;
65230;SDS011;51813;40.666;16.602;2023-08-08T02:54:57;3.03;;;1.30;;
65230;SDS011;51813;40.666;16.602;2023-08-08T02:57:23;2.75;;;1.17;;
65230;SDS011;51813;40.666;16.602;2023-08-08T02:59:48;1.98;;;1.30;;
65230;SDS011;51813;40.666;16.602;2023-08-08T03:02:14;2.78;;;1.33;;
65230;SDS011;51813;40.666;16.602;2023-08-08T03:04:40;4.18;;;1.63;;
65230;SDS011;51813;40.666;16.602;2023-08-08T03:07:05;2.20;;;1.30;;
65230;SDS011;51813;40.666;16.602;2023-08-08T03:09:31;2.38;;;1.10;;
65230;SDS011;51813;40.666;16.602;2023-08-08T03:11:57;2.90;;;1.42;;
65230;SDS011;51813;40.666;16.602;2023-08-08T03:14:22;2.25;;;1.20;;
65230;SDS011;51813;40.666;16.602;2023-08-08T03:16:48;2.53;;;1.30;;
65230;SDS011;51813;40.666;16.602;2023-08-08T03:19:14;2.50;;;1.40;;
65230;SDS011;51813;40.666;16.602;2023-08-08T03:21:39;2.83;;;1.30;;
65230;SDS011;51813;40.666;16.602;2023-08-08T03:24:05;2.03;;;1.17;;
65230;SDS011;51813;40.666;16.602;2023-08-08T03:26:31;3.38;;;1.27;;
65230;SDS011;51813;40.666;16.602;2023-08-08T03:28:56;1.58;;;1.08;;
65230;SDS011;51813;40.666;16.602;2023-08-08T03:31:22;2.67;;;1.10;;
65230;SDS011;51813;40.666;16.602;2023-08-08T03:33:48;3.15;;;1.33;;
65230;SDS011;51813;40.666;16.602;2023-08-08T03:36:14;3.50;;;1.30;;
65230;SDS011;51813;40.666;16.602;2023-08-08T03:38:40;3.85;;;1.20;;
65230;SDS011;51813;40.666;16.602;2023-08-08T03:41:09;3.05;;;1.20;;
65230;SDS011;51813;40.666;16.602;2023-08-08T03:43:35;2.67;;;1.20;;
65230;SDS011;51813;40.666;16.602;2023-08-08T03:46:00;2.72;;;1.35;;
65230;SDS011;51813;40.666;16.602;2023-08-08T03:48:26;3.85;;;1.40;;
65230;SDS011;51813;40.666;16.602;2023-08-08T03:50:52;4.22;;;1.35;;
65230;SDS011;51813;40.666;16.602;2023-08-08T03:53:17;4.43;;;1.20;;
65230;SDS011;51813;40.666;16.602;2023-08-08T03:55:43;3.15;;;1.38;;
65230;SDS011;51813;40.666;16.602;2023-08-08T03:58:09;4.30;;;1.42;;
65230;SDS011;51813;40.666;16.602;2023-08-08T04:00:34;2.50;;;1.17;;
65230;SDS011;51813;40.666;16.602;2023-08-08T04:03:00;2.63;;;1.38;;
65230;SDS011;51813;40.666;16.602;2023-08-08T04:05:26;3.45;;;1.30;;
65230;SDS011;51813;40.666;16.602;2023-08-08T04:07:51;2.15;;;1.10;;
65230;SDS011;51813;40.666;16.602;2023-08-08T04:10:17;3.75;;;1.52;;
65230;SDS011;51813;40.666;16.602;2023-08-08T04:12:43;3.30;;;1.33;;
65230;SDS011;51813;40.666;16.602;2023-08-08T04:15:08;2.08;;;1.15;;
65230;SDS011;51813;40.666;16.602;2023-08-08T04:17:34;2.10;;;1.15;;
65230;SDS011;51813;40.666;16.602;2023-08-08T04:20:00;2.50;;;1.20;;
65230;SDS011;51813;40.666;16.602;2023-08-08T04:22:26;2.58;;;1.20;;
65230;SDS011;51813;40.666;16.602;2023-08-08T04:24:51;4.03;;;1.60;;
65230;SDS011;51813;40.666;16.602;2023-08-08T04:27:17;2.80;;;1.30;;
65230;SDS011;51813;40.666;16.602;2023-08-08T04:29:43;3.60;;;1.20;;
65230;SDS011;51813;40.666;16.602;2023-08-08T04:32:09;3.40;;;1.38;;
65230;SDS011;51813;40.666;16.602;2023-08-08T04:34:34;3.78;;;1.20;;
65230;SDS011;51813;40.666;16.602;2023-08-08T04:37:00;2.40;;;1.20;;
65230;SDS011;51813;40.666;16.602;2023-08-08T04:39:25;2.00;;;1.27;;
65230;SDS011;51813;40.666;16.602;2023-08-08T04:41:51;2.95;;;1.27;;
65230;SDS011;51813;40.666;16.602;2023-08-08T04:44:17;2.50;;;1.40;;
65230;SDS011;51813;40.666;16.602;2023-08-08T04:46:43;2.22;;;1.23;;
65230;SDS011;51813;40.666;16.602;2023-08-08T04:49:08;2.35;;;1.13;;
65230;SDS011;51813;40.666;16.602;2023-08-08T04:51:34;4.57;;;1.58;;
65230;SDS011;51813;40.666;16.602;2023-08-08T04:53:59;2.67;;;1.30;;
65230;SDS011;51813;40.666;16.602;2023-08-08T04:56:25;2.40;;;1.27;;
65230;SDS011;51813;40.666;16.602;2023-08-08T04:58:51;2.17;;;1.10;;
65230;SDS011;51813;40.666;16.602;2023-08-08T05:01:16;2.30;;;1.50;;
65230;SDS011;51813;40.666;16.602;2023-08-08T05:03:45;3.05;;;1.30;;
65230;SDS011;51813;40.666;16.602;2023-08-08T05:06:11;2.90;;;1.25;;
65230;SDS011;51813;40.666;16.602;2023-08-08T05:08:37;3.65;;;1.50;;
65230;SDS011;51813;40.666;16.602;2023-08-08T05:11:02;2.92;;;1.25;;
65230;SDS011;51813;40.666;16.602;2023-08-08T05:13:28;2.67;;;1.30;;
65230;SDS011;51813;40.666;16.602;2023-08-08T05:15:54;3.13;;;1.33;;
65230;SDS011;51813;40.666;16.602;2023-08-08T05:18:19;2.35;;;1.20;;
65230;SDS011;51813;40.666;16.602;2023-08-08T05:20:45;2.70;;;1.20;;
65230;SDS011;51813;40.666;16.602;2023-08-08T05:23:11;3.50;;;1.30;;
65230;SDS011;51813;40.666;16.602;2023-08-08T05:25:36;2.60;;;1.50;;
65230;SDS011;51813;40.666;16.602;2023-08-08T05:28:02;2.15;;;1.23;;
65230;SDS011;51813;40.666;16.602;2023-08-08T05:30:28;2.83;;;1.40;;
65230;SDS011;51813;40.666;16.602;2023-08-08T05:32:53;2.67;;;1.45;;
65230;SDS011;51813;40.666;16.602;2023-08-08T05:35:19;3.13;;;1.30;;
65230;SDS011;51813;40.666;16.602;2023-08-08T05:37:45;2.88;;;1.10;;
65230;SDS011;51813;40.666;16.602;2023-08-08T05:40:10;2.35;;;1.25;;
65230;SDS011;51813;40.666;16.602;2023-08-08T05:42:39;2.33;;;1.33;;
65230;SDS011;51813;40.666;16.602;2023-08-08T05:45:05;2.90;;;1.20;;
65230;SDS011;51813;40.666;16.602;2023-08-08T05:47:31;2.70;;;1.40;;
65230;SDS011;51813;40.666;16.602;2023-08-08T05:49:57;2.55;;;1.17;;
65230;SDS011;51813;40.666;16.602;2023-08-08T05:52:23;2.15;;;1.30;;
65230;SDS011;51813;40.666;16.602;2023-08-08T05:54:49;3.25;;;1.50;;
65230;SDS011;51813;40.666;16.602;2023-08-08T05:57:14;3.28;;;1.25;;
65230;SDS011;51813;40.666;16.602;2023-08-08T05:59:40;2.72;;;1.25;;
65230;SDS011;51813;40.666;16.602;2023-08-08T06:02:06;3.10;;;1.60;;
65230;SDS011;51813;40.666;16.602;2023-08-08T06:04:31;3.10;;;1.50;;
65230;SDS011;51813;40.666;16.602;2023-08-08T06:06:57;2.17;;;1.13;;
65230;SDS011;51813;40.666;16.602;2023-08-08T06:09:23;3.10;;;1.33;;
65230;SDS011;51813;40.666;16.602;2023-08-08T06:11:50;2.55;;;1.40;;
65230;SDS011;51813;40.666;16.602;2023-08-08T06:14:15;1.85;;;1.05;;
65230;SDS011;51813;40.666;16.602;2023-08-08T06:16:42;3.03;;;1.15;;
65230;SDS011;51813;40.666;16.602;2023-08-08T06:19:07;2.60;;;1.50;;
65230;SDS011;51813;40.666;16.602;2023-08-08T06:21:33;3.03;;;1.23;;
65230;SDS011;51813;40.666;16.602;2023-08-08T06:24:00;3.42;;;1.40;;
65230;SDS011;51813;40.666;16.602;2023-08-08T06:26:26;2.60;;;1.30;;
65230;SDS011;51813;40.666;16.602;2023-08-08T06:28:51;2.70;;;1.42;;
65230;SDS011;51813;40.666;16.602;2023-08-08T06:31:18;2.50;;;1.33;;
65230;SDS011;51813;40.666;16.602;2023-08-08T06:33:44;3.15;;;1.40;;
65230;SDS011;51813;40.666;16.602;2023-08-08T06:36:10;2.42;;;1.38;;
65230;SDS011;51813;40.666;16.602;2023-08-08T06:38:36;3.67;;;1.60;;
65230;SDS011;51813;40.666;16.602;2023-08-08T06:41:02;4.90;;;1.50;;
65230;SDS011;51813;40.666;16.602;2023-08-08T06:43:29;3.30;;;1.42;;
65230;SDS011;51813;40.666;16.602;2023-08-08T06:45:55;2.17;;;1.23;;
65230;SDS011;51813;40.666;16.602;2023-08-08T06:48:21;2.60;;;1.30;;
65230;SDS011;51813;40.666;16.602;2023-08-08T06:50:47;2.20;;;1.20;;
65230;SDS011;51813;40.666;16.602;2023-08-08T06:53:13;1.88;;;1.10;;
65230;SDS011;51813;40.666;16.602;2023-08-08T06:55:38;3.75;;;1.20;;
65230;SDS011;51813;40.666;16.602;2023-08-08T06:58:04;2.50;;;1.27;;
65230;SDS011;51813;40.666;16.602;2023-08-08T07:00:30;4.25;;;1.33;;
65230;SDS011;51813;40.666;16.602;2023-08-08T07:02:55;2.58;;;1.15;;
65230;SDS011;51813;40.666;16.602;2023-08-08T07:05:21;3.67;;;1.20;;
65230;SDS011;51813;40.666;16.602;2023-08-08T07:07:51;2.85;;;1.35;;
65230;SDS011;51813;40.666;16.602;2023-08-08T07:10:17;2.80;;;1.30;;
65230;SDS011;51813;40.666;16.602;2023-08-08T07:12:44;2.15;;;1.20;;
65230;SDS011;51813;40.666;16.602;2023-08-08T07:15:10;2.30;;;1.35;;
65230;SDS011;51813;40.666;16.602;2023-08-08T07:17:36;3.53;;;1.30;;
65230;SDS011;51813;40.666;16.602;2023-08-08T07:20:02;3.53;;;1.27;;
65230;SDS011;51813;40.666;16.602;2023-08-08T07:22:30;3.00;;;1.08;;
65230;SDS011;51813;40.666;16.602;2023-08-08T07:24:57;2.78;;;1.10;;
65230;SDS011;51813;40.666;16.602;2023-08-08T07:27:23;2.90;;;1.20;;
65230;SDS011;51813;40.666;16.602;2023-08-08T07:29:48;2.70;;;1.23;;
65230;SDS011;51813;40.666;16.602;2023-08-08T07:32:14;2.20;;;1.10;;
65230;SDS011;51813;40.666;16.602;2023-08-08T07:34:40;2.60;;;1.02;;
65230;SDS011;51813;40.666;16.602;2023-08-08T07:37:06;2.33;;;1.20;;
65230;SDS011;51813;40.666;16.602;2023-08-08T07:39:31;2.92;;;1.10;;
65230;SDS011;51813;40.666;16.602;2023-08-08T07:41:57;3.70;;;1.00;;
65230;SDS011;51813;40.666;16.602;2023-08-08T07:44:23;3.17;;;1.17;;
65230;SDS011;51813;40.666;16.602;2023-08-08T07:46:49;2.92;;;1.13;;
65230;SDS011;51813;40.666;16.602;2023-08-08T07:49:14;2.38;;;1.20;;
65230;SDS011;51813;40.666;16.602;2023-08-08T07:51:40;2.25;;;1.10;;
65230;SDS011;51813;40.666;16.602;2023-08-08T07:54:06;2.58;;;1.20;;
65230;SDS011;51813;40.666;16.602;2023-08-08T07:56:33;5.20;;;1.02;;
65230;SDS011;51813;40.666;16.602;2023-08-08T07:59:00;3.10;;;1.02;;
65230;SDS011;51813;40.666;16.602;2023-08-08T08:01:26;2.90;;;1.02;;
65230;SDS011;51813;40.666;16.602;2023-08-08T08:03:53;3.05;;;1.15;;
65230;SDS011;51813;40.666;16.602;2023-08-08T08:06:19;2.60;;;1.00;;
65230;SDS011;51813;40.666;16.602;2023-08-08T08:08:45;2.40;;;1.02;;
65230;SDS011;51813;40.666;16.602;2023-08-08T08:11:11;3.15;;;1.00;;
65230;SDS011;51813;40.666;16.602;2023-08-08T08:13:38;3.55;;;1.23;;
65230;SDS011;51813;40.666;16.602;2023-08-08T08:16:04;1.70;;;0.82;;
65230;SDS011;51813;40.666;16.602;2023-08-08T08:18:30;3.13;;;0.95;;
65230;SDS011;51813;40.666;16.602;2023-08-08T08:20:57;2.17;;;0.98;;
65230;SDS011;51813;40.666;16.602;2023-08-08T08:23:22;3.58;;;1.30;;
65230;SDS011;51813;40.666;16.602;2023-08-08T08:25:48;4.18;;;1.30;;
65230;SDS011;51813;40.666;16.602;2023-08-08T08:28:15;2.35;;;1.10;;
65230;SDS011;51813;40.666;16.602;2023-08-08T08:30:41;2.30;;;1.15;;
65230;SDS011;51813;40.666;16.602;2023-08-08T08:33:08;2.08;;;0.90;;
65230;SDS011;51813;40.666;16.602;2023-08-08T08:35:34;2.35;;;0.90;;
65230;SDS011;51813;40.666;16.602;2023-08-08T08:38:00;2.35;;;0.93;;
65230;SDS011;51813;40.666;16.602;2023-08-08T08:40:26;2.13;;;0.90;;
65230;SDS011;51813;40.666;16.602;2023-08-08T08:42:53;2.70;;;0.93;;
65230;SDS011;51813;40.666;16.602;2023-08-08T08:45:20;3.10;;;1.00;;
65230;SDS011;51813;40.666;16.602;2023-08-08T08:47:46;2.42;;;1.00;;
65230;SDS011;51813;40.666;16.602;2023-08-08T08:50:14;2.80;;;0.93;;
65230;SDS011;51813;40.666;16.602;2023-08-08T08:52:41;2.03;;;1.00;;
65230;SDS011;51813;40.666;16.602;2023-08-08T08:55:08;1.80;;;0.93;;
65230;SDS011;51813;40.666;16.602;2023-08-08T08:57:33;2.30;;;1.10;;
65230;SDS011;51813;40.666;16.602;2023-08-08T09:00:00;2.95;;;1.10;;
65230;SDS011;51813;40.666;16.602;2023-08-08T09:02:26;1.85;;;1.05;;
65230;SDS011;51813;40.666;16.602;2023-08-08T09:04:52;2.40;;;1.10;;
65230;SDS011;51813;40.666;16.602;2023-08-08T09:07:19;2.08;;;0.90;;
65230;SDS011;51813;40.666;16.602;2023-08-08T09:09:47;2.03;;;1.08;;
65230;SDS011;51813;40.666;16.602;2023-08-08T09:12:13;2.40;;;1.00;;
65230;SDS011;51813;40.666;16.602;2023-08-08T09:14:40;3.22;;;1.10;;
65230;SDS011;51813;40.666;16.602;2023-08-08T09:17:10;2.88;;;1.10;;
65230;SDS011;51813;40.666;16.602;2023-08-08T09:19:38;2.40;;;1.00;;
65230;SDS011;51813;40.666;16.602;2023-08-08T09:22:06;1.92;;;0.90;;
65230;SDS011;51813;40.666;16.602;2023-08-08T09:24:32;2.88;;;1.33;;
65230;SDS011;51813;40.666;16.602;2023-08-08T09:27:02;3.00;;;1.10;;
65230;SDS011;51813;40.666;16.602;2023-08-08T09:29:29;3.05;;;1.27;;
65230;SDS011;51813;40.666;16.602;2023-08-08T09:31:54;2.20;;;1.00;;
65230;SDS011;51813;40.666;16.602;2023-08-08T09:34:23;2.72;;;1.30;;
65230;SDS011;51813;40.666;16.602;2023-08-08T09:36:51;2.00;;;1.17;;
65230;SDS011;51813;40.666;16.602;2023-08-08T09:39:17;2.60;;;1.20;;
65230;SDS011;51813;40.666;16.602;2023-08-08T09:41:45;2.10;;;1.10;;
65230;SDS011;51813;40.666;16.602;2023-08-08T09:44:11;1.83;;;1.00;;
65230;SDS011;51813;40.666;16.602;2023-08-08T09:46:37;2.13;;;1.10;;
65230;SDS011;51813;40.666;16.602;2023-08-08T09:49:04;2.58;;;1.10;;
65230;SDS011;51813;40.666;16.602;2023-08-08T09:51:30;3.13;;;1.15;;
65230;SDS011;51813;40.666;16.602;2023-08-08T09:53:58;3.38;;;1.63;;
65230;SDS011;51813;40.666;16.602;2023-08-08T09:56:25;3.30;;;1.10;;
65230;SDS011;51813;40.666;16.602;2023-08-08T09:58:52;2.28;;;1.27;;
65230;SDS011;51813;40.666;16.602;2023-08-08T10:01:18;3.75;;;1.35;;
65230;SDS011;51813;40.666;16.602;2023-08-08T10:03:45;2.58;;;1.15;;
65230;SDS011;51813;40.666;16.602;2023-08-08T10:06:13;2.40;;;1.30;;
65230;SDS011;51813;40.666;16.602;2023-08-08T10:08:39;2.35;;;1.00;;
65230;SDS011;51813;40.666;16.602;2023-08-08T10:11:05;2.53;;;0.90;;
65230;SDS011;51813;40.666;16.602;2023-08-08T10:13:34;2.28;;;1.00;;
65230;SDS011;51813;40.666;16.602;2023-08-08T10:16:03;4.30;;;1.30;;
65230;SDS011;51813;40.666;16.602;2023-08-08T10:18:33;1.70;;;0.80;;
65230;SDS011;51813;40.666;16.602;2023-08-08T10:20:59;2.25;;;0.93;;
65230;SDS011;51813;40.666;16.602;2023-08-08T10:23:25;2.13;;;1.23;;
65230;SDS011;51813;40.666;16.602;2023-08-08T10:26:00;3.22;;;1.00;;
65230;SDS011;51813;40.666;16.602;2023-08-08T10:28:27;4.13;;;1.25;;
65230;SDS011;51813;40.666;16.602;2023-08-08T10:30:54;2.63;;;1.20;;
65230;SDS011;51813;40.666;16.602;2023-08-08T10:35:58;2.78;;;1.10;;
65230;SDS011;51813;40.666;16.602;2023-08-08T10:41:18;3.75;;;1.10;;
65230;SDS011;51813;40.666;16.602;2023-08-08T10:48:54;2.15;;;1.00;;
65230;SDS011;51813;40.666;16.602;2023-08-08T10:54:18;2.97;;;1.10;;
65230;SDS011;51813;40.666;16.602;2023-08-08T10:56:50;1.98;;;1.10;;
65230;SDS011;51813;40.666;16.602;2023-08-08T11:01:47;2.08;;;1.02;;
65230;SDS011;51813;40.666;16.602;2023-08-08T11:04:14;3.38;;;1.00;;
65230;SDS011;51813;40.666;16.602;2023-08-08T11:06:41;1.90;;;0.80;;
65230;SDS011;51813;40.666;16.602;2023-08-08T11:09:07;2.28;;;1.17;;
65230;SDS011;51813;40.666;16.602;2023-08-08T11:11:40;2.95;;;1.20;;
65230;SDS011;51813;40.666;16.602;2023-08-08T11:14:14;2.83;;;1.00;;
65230;SDS011;51813;40.666;16.602;2023-08-08T11:16:40;2.47;;;1.30;;
65230;SDS011;51813;40.666;16.602;2023-08-08T11:19:07;2.88;;;1.10;;
65230;SDS011;51813;40.666;16.602;2023-08-08T11:21:34;1.73;;;1.00;;
65230;SDS011;51813;40.666;16.602;2023-08-08T11:24:05;2.72;;;1.15;;
65230;SDS011;51813;40.666;16.602;2023-08-08T11:26:32;1.98;;;0.90;;
65230;SDS011;51813;40.666;16.602;2023-08-08T11:28:59;2.20;;;1.00;;
65230;SDS011;51813;40.666;16.602;2023-08-08T11:31:25;2.63;;;1.15;;
65230;SDS011;51813;40.666;16.602;2023-08-08T11:33:52;2.83;;;1.05;;
65230;SDS011;51813;40.666;16.602;2023-08-08T11:36:19;2.35;;;1.10;;
65230;SDS011;51813;40.666;16.602;2023-08-08T11:38:45;2.25;;;1.00;;
65230;SDS011;51813;40.666;16.602;2023-08-08T11:41:15;1.90;;;1.00;;
65230;SDS011;51813;40.666;16.602;2023-08-08T11:43:43;1.88;;;1.17;;
65230;SDS011;51813;40.666;16.602;2023-08-08T11:46:11;2.08;;;1.02;;
65230;SDS011;51813;40.666;16.602;2023-08-08T11:48:37;4.20;;;1.77;;
65230;SDS011;51813;40.666;16.602;2023-08-08T11:51:04;2.97;;;1.20;;
65230;SDS011;51813;40.666;16.602;2023-08-08T11:53:30;2.17;;;1.20;;
65230;SDS011;51813;40.666;16.602;2023-08-08T11:55:56;3.08;;;1.08;;
65230;SDS011;51813;40.666;16.602;2023-08-08T11:58:24;2.63;;;1.20;;
65230;SDS011;51813;40.666;16.602;2023-08-08T12:00:50;3.35;;;1.40;;
65230;SDS011;51813;40.666;16.602;2023-08-08T12:03:17;2.00;;;1.10;;
65230;SDS011;51813;40.666;16.602;2023-08-08T12:05:47;4.13;;;1.17;;
65230;SDS011;51813;40.666;16.602;2023-08-08T12:08:17;3.77;;;1.23;;
65230;SDS011;51813;40.666;16.602;2023-08-08T12:10:50;2.45;;;1.00;;
65230;SDS011;51813;40.666;16.602;2023-08-08T12:13:20;2.08;;;1.00;;
65230;SDS011;51813;40.666;16.602;2023-08-08T12:15:46;2.17;;;1.10;;
65230;SDS011;51813;40.666;16.602;2023-08-08T12:18:15;2.85;;;1.17;;
65230;SDS011;51813;40.666;16.602;2023-08-08T12:20:42;2.17;;;1.00;;
65230;SDS011;51813;40.666;16.602;2023-08-08T12:23:08;2.72;;;1.10;;
65230;SDS011;51813;40.666;16.602;2023-08-08T12:25:34;2.55;;;1.17;;
65230;SDS011;51813;40.666;16.602;2023-08-08T12:28:01;3.25;;;1.05;;
65230;SDS011;51813;40.666;16.602;2023-08-08T12:30:27;2.05;;;1.02;;
65230;SDS011;51813;40.666;16.602;2023-08-08T12:32:53;2.50;;;1.00;;
65230;SDS011;51813;40.666;16.602;2023-08-08T12:35:19;1.83;;;1.02;;
65230;SDS011;51813;40.666;16.602;2023-08-08T12:37:46;2.58;;;1.10;;
65230;SDS011;51813;40.666;16.602;2023-08-08T12:40:12;2.17;;;1.10;;
65230;SDS011;51813;40.666;16.602;2023-08-08T12:42:38;2.33;;;1.10;;
65230;SDS011;51813;40.666;16.602;2023-08-08T12:45:05;3.03;;;1.02;;
65230;SDS011;51813;40.666;16.602;2023-08-08T12:47:31;2.13;;;1.15;;
65230;SDS011;51813;40.666;16.602;2023-08-08T12:49:57;2.00;;;1.20;;
65230;SDS011;51813;40.666;16.602;2023-08-08T12:52:23;2.90;;;1.35;;
65230;SDS011;51813;40.666;16.602;2023-08-08T12:54:49;2.67;;;1.50;;
65230;SDS011;51813;40.666;16.602;2023-08-08T12:57:14;2.50;;;1.17;;
65230;SDS011;51813;40.666;16.602;2023-08-08T12:59:40;2.70;;;1.30;;
65230;SDS011;51813;40.666;16.602;2023-08-08T13:02:07;1.90;;;1.02;;
65230;SDS011;51813;40.666;16.602;2023-08-08T13:04:32;2.33;;;1.00;;
65230;SDS011;51813;40.666;16.602;2023-08-08T13:06:58;2.40;;;1.10;;
65230;SDS011;51813;40.666;16.602;2023-08-08T13:09:24;2.63;;;1.17;;
65230;SDS011;51813;40.666;16.602;2023-08-08T13:11:50;1.98;;;1.10;;
65230;SDS011;51813;40.666;16.602;2023-08-08T13:14:15;1.90;;;1.10;;
65230;SDS011;51813;40.666;16.602;2023-08-08T13:16:41;2.28;;;1.20;;
65230;SDS011;51813;40.666;16.602;2023-08-08T13:19:07;3.22;;;1.10;;
65230;SDS011;51813;40.666;16.602;2023-08-08T13:21:33;2.38;;;1.30;;
65230;SDS011;51813;40.666;16.602;2023-08-08T13:23:58;2.78;;;1.27;;
65230;SDS011;51813;40.666;16.602;2023-08-08T13:26:24;2.20;;;0.90;;
65230;SDS011;51813;40.666;16.602;2023-08-08T13:28:50;2.33;;;1.10;;
65230;SDS011;51813;40.666;16.602;2023-08-08T13:31:16;2.33;;;1.10;;
65230;SDS011;51813;40.666;16.602;2023-08-08T13:33:42;2.42;;;1.10;;
65230;SDS011;51813;40.666;16.602;2023-08-08T13:36:07;2.00;;;1.20;;
65230;SDS011;51813;40.666;16.602;2023-08-08T13:38:34;2.00;;;1.00;;
65230;SDS011;51813;40.666;16.602;2023-08-08T13:41:00;3.38;;;1.10;;
65230;SDS011;51813;40.666;16.602;2023-08-08T13:43:26;1.90;;;1.00;;
65230;SDS011;51813;40.666;16.602;2023-08-08T13:45:52;2.80;;;1.25;;
65230;SDS011;51813;40.666;16.602;2023-08-08T13:48:17;2.72;;;1.15;;
65230;SDS011;51813;40.666;16.602;2023-08-08T13:50:43;2.45;;;1.15;;
65230;SDS011;51813;40.666;16.602;2023-08-08T13:53:09;1.85;;;1.10;;
65230;SDS011;51813;40.666;16.602;2023-08-08T13:55:35;1.98;;;1.00;;
65230;SDS011;51813;40.666;16.602;2023-08-08T13:58:09;3.10;;;1.15;;
65230;SDS011;51813;40.666;16.602;2023-08-08T14:00:35;1.70;;;1.10;;
65230;SDS011;51813;40.666;16.602;2023-08-08T14:03:01;2.55;;;1.30;;
65230;SDS011;51813;40.666;16.602;2023-08-08T14:05:27;3.60;;;1.58;;
65230;SDS011;51813;40.666;16.602;2023-08-08T14:07:54;2.10;;;1.17;;
65230;SDS011;51813;40.666;16.602;2023-08-08T14:10:19;2.65;;;1.15;;
65230;SDS011;51813;40.666;16.602;2023-08-08T14:12:45;3.08;;;1.30;;
65230;SDS011;51813;40.666;16.602;2023-08-08T14:15:11;2.70;;;1.30;;
65230;SDS011;51813;40.666;16.602;2023-08-08T14:17:37;2.05;;;1.25;;
65230;SDS011;51813;40.666;16.602;2023-08-08T14:20:02;2.42;;;1.35;;
65230;SDS011;51813;40.666;16.602;2023-08-08T14:22:29;1.80;;;1.08;;
65230;SDS011;51813;40.666;16.602;2023-08-08T14:24:55;2.60;;;1.27;;
65230;SDS011;51813;40.666;16.602;2023-08-08T14:27:21;2.30;;;1.30;;
65230;SDS011;51813;40.666;16.602;2023-08-08T14:29:47;3.50;;;1.50;;
65230;SDS011;51813;40.666;16.602;2023-08-08T14:32:13;3.15;;;1.25;;
65230;SDS011;51813;40.666;16.602;2023-08-08T14:34:39;3.85;;;1.45;;
65230;SDS011;51813;40.666;16.602;2023-08-08T14:37:05;2.53;;;1.35;;
65230;SDS011;51813;40.666;16.602;2023-08-08T14:39:31;3.20;;;1.50;;
65230;SDS011;51813;40.666;16.602;2023-08-08T14:41:57;3.08;;;1.60;;
65230;SDS011;51813;40.666;16.602;2023-08-08T14:44:23;2.38;;;1.40;;
65230;SDS011;51813;40.666;16.602;2023-08-08T14:46:49;2.78;;;1.45;;
65230;SDS011;51813;40.666;16.602;2023-08-08T14:49:15;2.53;;;1.30;;
65230;SDS011;51813;40.666;16.602;2023-08-08T14:51:41;2.42;;;1.60;;